sensor_id;sensor_type;location;lat;lon;timestamp;temperature;humidity
19622;DHT22;9958;33.196;-97.114;2024-01-30T00:01:46;19.10;66.40
19622;DHT22;9958;33.196;-97.114;2024-01-30T00:04:15;19.00;67.40
19622;DHT22;9958;33.196;-97.114;2024-01-30T00:06:43;18.90;68.10
19622;DHT22;9958;33.196;-97.114;2024-01-30T00:09:11;18.70;68.50
19622;DHT22;9958;33.196;-97.114;2024-01-30T00:11:40;18.60;68.90
19622;DHT22;9958;33.196;-97.114;2024-01-30T00:14:10;18.40;69.60
19622;DHT22;9958;33.196;-97.114;2024-01-30T00:16:38;18.30;70.70
19622;DHT22;9958;33.196;-97.114;2024-01-30T00:19:06;18.20;71.40
19622;DHT22;9958;33.196;-97.114;2024-01-30T00:21:35;18.00;71.30
19622;DHT22;9958;33.196;-97.114;2024-01-30T00:24:04;17.90;71.50
19622;DHT22;9958;33.196;-97.114;2024-01-30T00:26:32;17.80;72.00
19622;DHT22;9958;33.196;-97.114;2024-01-30T00:29:00;17.70;72.50
19622;DHT22;9958;33.196;-97.114;2024-01-30T00:31:30;17.60;73.20
19622;DHT22;9958;33.196;-97.114;2024-01-30T00:33:58;17.50;74.00
19622;DHT22;9958;33.196;-97.114;2024-01-30T00:36:27;17.30;74.50
19622;DHT22;9958;33.196;-97.114;2024-01-30T00:38:56;17.20;75.00
19622;DHT22;9958;33.196;-97.114;2024-01-30T00:41:24;17.10;75.40
19622;DHT22;9958;33.196;-97.114;2024-01-30T00:43:53;17.00;74.80
19622;DHT22;9958;33.196;-97.114;2024-01-30T00:46:21;16.90;75.00
19622;DHT22;9958;33.196;-97.114;2024-01-30T00:48:51;16.80;75.40
19622;DHT22;9958;33.196;-97.114;2024-01-30T00:51:20;16.70;75.70
19622;DHT22;9958;33.196;-97.114;2024-01-30T00:53:48;16.60;76.00
19622;DHT22;9958;33.196;-97.114;2024-01-30T00:56:16;16.50;76.60
19622;DHT22;9958;33.196;-97.114;2024-01-30T00:58:45;16.40;76.90
19622;DHT22;9958;33.196;-97.114;2024-01-30T01:01:14;16.30;77.30
19622;DHT22;9958;33.196;-97.114;2024-01-30T01:03:42;16.30;77.70
19622;DHT22;9958;33.196;-97.114;2024-01-30T01:06:12;16.20;78.20
19622;DHT22;9958;33.196;-97.114;2024-01-30T01:08:41;16.20;78.20
19622;DHT22;9958;33.196;-97.114;2024-01-30T01:11:09;16.10;78.40
19622;DHT22;9958;33.196;-97.114;2024-01-30T01:13:37;16.00;79.00
19622;DHT22;9958;33.196;-97.114;2024-01-30T01:16:06;16.00;79.40
19622;DHT22;9958;33.196;-97.114;2024-01-30T01:18:34;15.90;79.90
19622;DHT22;9958;33.196;-97.114;2024-01-30T01:21:03;15.90;80.60
19622;DHT22;9958;33.196;-97.114;2024-01-30T01:23:33;15.80;80.60
19622;DHT22;9958;33.196;-97.114;2024-01-30T01:26:01;15.70;80.50
19622;DHT22;9958;33.196;-97.114;2024-01-30T01:28:29;15.70;80.50
19622;DHT22;9958;33.196;-97.114;2024-01-30T01:30:58;15.60;81.10
19622;DHT22;9958;33.196;-97.114;2024-01-30T01:33:31;15.60;82.50
19622;DHT22;9958;33.196;-97.114;2024-01-30T01:36:00;15.50;83.50
19622;DHT22;9958;33.196;-97.114;2024-01-30T01:38:29;15.40;83.80
19622;DHT22;9958;33.196;-97.114;2024-01-30T01:40:59;15.30;83.60
19622;DHT22;9958;33.196;-97.114;2024-01-30T01:43:28;15.30;83.20
19622;DHT22;9958;33.196;-97.114;2024-01-30T01:45:56;15.20;83.70
19622;DHT22;9958;33.196;-97.114;2024-01-30T01:48:25;15.10;84.20
19622;DHT22;9958;33.196;-97.114;2024-01-30T01:50:54;15.10;84.50
19622;DHT22;9958;33.196;-97.114;2024-01-30T01:53:22;15.00;84.00
19622;DHT22;9958;33.196;-97.114;2024-01-30T01:55:51;15.00;84.00
19622;DHT22;9958;33.196;-97.114;2024-01-30T01:58:22;15.00;84.30
19622;DHT22;9958;33.196;-97.114;2024-01-30T02:00:51;14.90;84.10
19622;DHT22;9958;33.196;-97.114;2024-01-30T02:03:20;14.90;84.30
19622;DHT22;9958;33.196;-97.114;2024-01-30T02:05:49;14.90;84.30
19622;DHT22;9958;33.196;-97.114;2024-01-30T02:08:18;14.90;84.30
19622;DHT22;9958;33.196;-97.114;2024-01-30T02:10:46;14.90;84.50
19622;DHT22;9958;33.196;-97.114;2024-01-30T02:13:15;14.90;84.40
19622;DHT22;9958;33.196;-97.114;2024-01-30T02:15:49;14.90;84.30
19622;DHT22;9958;33.196;-97.114;2024-01-30T02:18:19;14.80;83.90
19622;DHT22;9958;33.196;-97.114;2024-01-30T02:20:47;14.80;83.70
19622;DHT22;9958;33.196;-97.114;2024-01-30T02:23:18;14.80;83.80
19622;DHT22;9958;33.196;-97.114;2024-01-30T02:25:47;14.80;84.10
19622;DHT22;9958;33.196;-97.114;2024-01-30T02:28:15;14.80;84.00
19622;DHT22;9958;33.196;-97.114;2024-01-30T02:30:44;14.80;84.00
19622;DHT22;9958;33.196;-97.114;2024-01-30T02:33:12;14.70;83.80
19622;DHT22;9958;33.196;-97.114;2024-01-30T02:35:41;14.80;83.80
19622;DHT22;9958;33.196;-97.114;2024-01-30T02:38:09;14.70;83.90
19622;DHT22;9958;33.196;-97.114;2024-01-30T02:40:39;14.70;83.80
19622;DHT22;9958;33.196;-97.114;2024-01-30T02:43:07;14.70;84.00
19622;DHT22;9958;33.196;-97.114;2024-01-30T02:45:36;14.70;84.30
19622;DHT22;9958;33.196;-97.114;2024-01-30T02:48:05;14.60;84.20
19622;DHT22;9958;33.196;-97.114;2024-01-30T02:50:33;14.60;84.50
19622;DHT22;9958;33.196;-97.114;2024-01-30T02:53:01;14.60;84.50
19622;DHT22;9958;33.196;-97.114;2024-01-30T02:55:30;14.60;84.70
19622;DHT22;9958;33.196;-97.114;2024-01-30T02:58:00;14.50;84.80
19622;DHT22;9958;33.196;-97.114;2024-01-30T03:00:28;14.50;85.00
19622;DHT22;9958;33.196;-97.114;2024-01-30T03:02:57;14.40;84.90
19622;DHT22;9958;33.196;-97.114;2024-01-30T03:05:25;14.40;84.90
19622;DHT22;9958;33.196;-97.114;2024-01-30T03:07:54;14.40;85.60
19622;DHT22;9958;33.196;-97.114;2024-01-30T03:10:22;14.40;85.80
19622;DHT22;9958;33.196;-97.114;2024-01-30T03:12:51;14.30;86.10
19622;DHT22;9958;33.196;-97.114;2024-01-30T03:15:20;14.20;86.10
19622;DHT22;9958;33.196;-97.114;2024-01-30T03:17:49;14.20;86.40
19622;DHT22;9958;33.196;-97.114;2024-01-30T03:20:17;14.20;87.50
19622;DHT22;9958;33.196;-97.114;2024-01-30T03:22:46;14.10;87.50
19622;DHT22;9958;33.196;-97.114;2024-01-30T03:25:14;14.10;88.20
19622;DHT22;9958;33.196;-97.114;2024-01-30T03:27:42;14.00;88.60
19622;DHT22;9958;33.196;-97.114;2024-01-30T03:30:11;14.00;89.30
19622;DHT22;9958;33.196;-97.114;2024-01-30T03:32:41;13.90;89.90
19622;DHT22;9958;33.196;-97.114;2024-01-30T03:35:10;13.90;90.00
19622;DHT22;9958;33.196;-97.114;2024-01-30T03:37:38;13.80;90.00
19622;DHT22;9958;33.196;-97.114;2024-01-30T03:40:07;13.80;90.10
19622;DHT22;9958;33.196;-97.114;2024-01-30T03:42:36;13.70;90.00
19622;DHT22;9958;33.196;-97.114;2024-01-30T03:45:05;13.70;89.90
19622;DHT22;9958;33.196;-97.114;2024-01-30T03:47:33;13.60;90.10
19622;DHT22;9958;33.196;-97.114;2024-01-30T03:50:04;13.60;90.10
19622;DHT22;9958;33.196;-97.114;2024-01-30T03:52:32;13.50;90.00
19622;DHT22;9958;33.196;-97.114;2024-01-30T03:55:01;13.50;90.20
19622;DHT22;9958;33.196;-97.114;2024-01-30T03:57:29;13.50;90.30
19622;DHT22;9958;33.196;-97.114;2024-01-30T03:59:58;13.40;90.40
19622;DHT22;9958;33.196;-97.114;2024-01-30T04:02:26;13.40;90.60
19622;DHT22;9958;33.196;-97.114;2024-01-30T04:04:54;13.30;90.50
19622;DHT22;9958;33.196;-97.114;2024-01-30T04:07:24;13.20;90.50
19622;DHT22;9958;33.196;-97.114;2024-01-30T04:09:52;13.20;90.60
19622;DHT22;9958;33.196;-97.114;2024-01-30T04:12:21;13.20;90.80
19622;DHT22;9958;33.196;-97.114;2024-01-30T04:14:49;13.10;90.90
19622;DHT22;9958;33.196;-97.114;2024-01-30T04:17:17;13.10;91.00
19622;DHT22;9958;33.196;-97.114;2024-01-30T04:19:46;13.00;91.10
19622;DHT22;9958;33.196;-97.114;2024-01-30T04:22:14;12.90;91.20
19622;DHT22;9958;33.196;-97.114;2024-01-30T04:24:44;12.90;91.40
19622;DHT22;9958;33.196;-97.114;2024-01-30T04:27:12;12.90;91.50
19622;DHT22;9958;33.196;-97.114;2024-01-30T04:29:40;12.90;91.60
19622;DHT22;9958;33.196;-97.114;2024-01-30T04:32:09;12.80;91.60
19622;DHT22;9958;33.196;-97.114;2024-01-30T04:34:37;12.80;91.70
19622;DHT22;9958;33.196;-97.114;2024-01-30T04:37:06;12.70;91.60
19622;DHT22;9958;33.196;-97.114;2024-01-30T04:39:34;12.70;91.70
19622;DHT22;9958;33.196;-97.114;2024-01-30T04:42:05;12.70;91.80
19622;DHT22;9958;33.196;-97.114;2024-01-30T04:44:33;12.60;91.80
19622;DHT22;9958;33.196;-97.114;2024-01-30T04:47:02;12.60;91.90
19622;DHT22;9958;33.196;-97.114;2024-01-30T04:49:32;12.50;91.90
19622;DHT22;9958;33.196;-97.114;2024-01-30T04:51:59;12.50;91.90
19622;DHT22;9958;33.196;-97.114;2024-01-30T04:54:27;12.50;92.00
19622;DHT22;9958;33.196;-97.114;2024-01-30T04:56:56;12.50;92.20
19622;DHT22;9958;33.196;-97.114;2024-01-30T04:59:26;12.40;92.30
19622;DHT22;9958;33.196;-97.114;2024-01-30T05:01:54;12.40;92.60
19622;DHT22;9958;33.196;-97.114;2024-01-30T05:04:23;12.40;93.00
19622;DHT22;9958;33.196;-97.114;2024-01-30T05:06:51;12.40;93.00
19622;DHT22;9958;33.196;-97.114;2024-01-30T05:09:19;12.30;93.00
19622;DHT22;9958;33.196;-97.114;2024-01-30T05:11:48;12.30;93.20
19622;DHT22;9958;33.196;-97.114;2024-01-30T05:14:16;12.30;93.40
19622;DHT22;9958;33.196;-97.114;2024-01-30T05:16:46;12.30;93.80
19622;DHT22;9958;33.196;-97.114;2024-01-30T05:19:15;12.30;93.90
19622;DHT22;9958;33.196;-97.114;2024-01-30T05:21:43;12.20;93.90
19622;DHT22;9958;33.196;-97.114;2024-01-30T05:24:11;12.20;94.00
19622;DHT22;9958;33.196;-97.114;2024-01-30T05:26:40;12.10;94.10
19622;DHT22;9958;33.196;-97.114;2024-01-30T05:29:08;12.10;94.30
19622;DHT22;9958;33.196;-97.114;2024-01-30T05:31:36;12.10;94.50
19622;DHT22;9958;33.196;-97.114;2024-01-30T05:34:06;12.00;94.60
19622;DHT22;9958;33.196;-97.114;2024-01-30T05:36:35;11.90;95.00
19622;DHT22;9958;33.196;-97.114;2024-01-30T05:39:03;11.90;95.20
19622;DHT22;9958;33.196;-97.114;2024-01-30T05:41:32;11.90;95.40
19622;DHT22;9958;33.196;-97.114;2024-01-30T05:44:00;11.80;95.50
19622;DHT22;9958;33.196;-97.114;2024-01-30T05:46:28;11.80;95.60
19622;DHT22;9958;33.196;-97.114;2024-01-30T05:48:56;11.80;96.20
19622;DHT22;9958;33.196;-97.114;2024-01-30T05:51:26;11.80;96.60
19622;DHT22;9958;33.196;-97.114;2024-01-30T05:53:55;11.70;96.90
19622;DHT22;9958;33.196;-97.114;2024-01-30T05:56:24;11.70;96.70
19622;DHT22;9958;33.196;-97.114;2024-01-30T05:58:52;11.70;96.40
19622;DHT22;9958;33.196;-97.114;2024-01-30T06:01:20;11.70;96.70
19622;DHT22;9958;33.196;-97.114;2024-01-30T06:03:49;11.60;96.80
19622;DHT22;9958;33.196;-97.114;2024-01-30T06:06:17;11.60;96.90
19622;DHT22;9958;33.196;-97.114;2024-01-30T06:08:47;11.50;97.10
19622;DHT22;9958;33.196;-97.114;2024-01-30T06:11:15;11.50;97.10
19622;DHT22;9958;33.196;-97.114;2024-01-30T06:13:43;11.50;97.10
19622;DHT22;9958;33.196;-97.114;2024-01-30T06:16:12;11.50;97.10
19622;DHT22;9958;33.196;-97.114;2024-01-30T06:18:40;11.50;97.00
19622;DHT22;9958;33.196;-97.114;2024-01-30T06:21:09;11.50;96.80
19622;DHT22;9958;33.196;-97.114;2024-01-30T06:23:37;11.50;96.70
19622;DHT22;9958;33.196;-97.114;2024-01-30T06:26:07;11.50;96.80
19622;DHT22;9958;33.196;-97.114;2024-01-30T06:28:35;11.50;96.80
19622;DHT22;9958;33.196;-97.114;2024-01-30T06:31:04;11.50;96.90
19622;DHT22;9958;33.196;-97.114;2024-01-30T06:33:32;11.50;96.90
19622;DHT22;9958;33.196;-97.114;2024-01-30T06:36:00;11.50;96.90
19622;DHT22;9958;33.196;-97.114;2024-01-30T06:38:29;11.50;97.10
19622;DHT22;9958;33.196;-97.114;2024-01-30T06:40:57;11.50;97.20
19622;DHT22;9958;33.196;-97.114;2024-01-30T06:43:27;11.50;97.10
19622;DHT22;9958;33.196;-97.114;2024-01-30T06:45:55;11.50;97.10
19622;DHT22;9958;33.196;-97.114;2024-01-30T06:48:23;11.50;97.20
19622;DHT22;9958;33.196;-97.114;2024-01-30T06:50:53;11.50;97.40
19622;DHT22;9958;33.196;-97.114;2024-01-30T06:53:24;11.40;97.50
19622;DHT22;9958;33.196;-97.114;2024-01-30T06:55:52;11.40;97.40
19622;DHT22;9958;33.196;-97.114;2024-01-30T06:58:21;11.40;97.60
19622;DHT22;9958;33.196;-97.114;2024-01-30T07:00:51;11.40;97.60
19622;DHT22;9958;33.196;-97.114;2024-01-30T07:03:19;11.30;97.80
19622;DHT22;9958;33.196;-97.114;2024-01-30T07:05:48;11.30;97.90
19622;DHT22;9958;33.196;-97.114;2024-01-30T07:08:16;11.30;97.70
19622;DHT22;9958;33.196;-97.114;2024-01-30T07:10:45;11.20;97.60
19622;DHT22;9958;33.196;-97.114;2024-01-30T07:13:13;11.20;97.70
19622;DHT22;9958;33.196;-97.114;2024-01-30T07:15:42;11.20;97.60
19622;DHT22;9958;33.196;-97.114;2024-01-30T07:18:12;11.20;97.60
19622;DHT22;9958;33.196;-97.114;2024-01-30T07:20:41;11.20;97.70
19622;DHT22;9958;33.196;-97.114;2024-01-30T07:23:12;11.20;97.70
19622;DHT22;9958;33.196;-97.114;2024-01-30T07:25:43;11.20;97.80
19622;DHT22;9958;33.196;-97.114;2024-01-30T07:28:12;11.20;97.80
19622;DHT22;9958;33.196;-97.114;2024-01-30T07:30:43;11.20;97.90
19622;DHT22;9958;33.196;-97.114;2024-01-30T07:33:12;11.20;98.10
19622;DHT22;9958;33.196;-97.114;2024-01-30T07:35:41;11.20;98.60
19622;DHT22;9958;33.196;-97.114;2024-01-30T07:38:09;11.20;99.00
19622;DHT22;9958;33.196;-97.114;2024-01-30T07:40:37;11.10;99.20
19622;DHT22;9958;33.196;-97.114;2024-01-30T07:43:06;11.10;99.30
19622;DHT22;9958;33.196;-97.114;2024-01-30T07:45:34;11.00;99.20
19622;DHT22;9958;33.196;-97.114;2024-01-30T07:48:04;11.00;99.10
19622;DHT22;9958;33.196;-97.114;2024-01-30T07:50:34;11.00;99.30
19622;DHT22;9958;33.196;-97.114;2024-01-30T07:53:03;10.90;99.30
19622;DHT22;9958;33.196;-97.114;2024-01-30T07:55:31;10.90;99.50
19622;DHT22;9958;33.196;-97.114;2024-01-30T07:57:59;10.90;99.80
19622;DHT22;9958;33.196;-97.114;2024-01-30T08:00:27;10.90;99.80
19622;DHT22;9958;33.196;-97.114;2024-01-30T08:02:56;10.90;99.90
19622;DHT22;9958;33.196;-97.114;2024-01-30T08:05:25;10.80;99.90
19622;DHT22;9958;33.196;-97.114;2024-01-30T08:07:54;10.80;99.90
19622;DHT22;9958;33.196;-97.114;2024-01-30T08:10:23;10.80;99.90
19622;DHT22;9958;33.196;-97.114;2024-01-30T08:12:51;10.70;99.90
19622;DHT22;9958;33.196;-97.114;2024-01-30T08:15:19;10.70;99.90
19622;DHT22;9958;33.196;-97.114;2024-01-30T08:17:47;10.70;99.90
19622;DHT22;9958;33.196;-97.114;2024-01-30T08:20:16;10.70;99.90
19622;DHT22;9958;33.196;-97.114;2024-01-30T08:22:44;10.70;99.90
19622;DHT22;9958;33.196;-97.114;2024-01-30T08:25:14;10.70;99.90
19622;DHT22;9958;33.196;-97.114;2024-01-30T08:27:42;10.80;99.90
19622;DHT22;9958;33.196;-97.114;2024-01-30T08:30:11;10.80;99.60
19622;DHT22;9958;33.196;-97.114;2024-01-30T08:32:40;10.80;99.40
19622;DHT22;9958;33.196;-97.114;2024-01-30T08:35:08;10.90;99.20
19622;DHT22;9958;33.196;-97.114;2024-01-30T08:37:40;10.90;98.80
19622;DHT22;9958;33.196;-97.114;2024-01-30T08:40:08;11.00;98.40
19622;DHT22;9958;33.196;-97.114;2024-01-30T08:42:38;11.00;98.40
19622;DHT22;9958;33.196;-97.114;2024-01-30T08:45:07;11.10;98.30
19622;DHT22;9958;33.196;-97.114;2024-01-30T08:47:35;11.10;98.20
19622;DHT22;9958;33.196;-97.114;2024-01-30T08:50:05;11.20;98.50
19622;DHT22;9958;33.196;-97.114;2024-01-30T08:52:33;11.20;98.10
19622;DHT22;9958;33.196;-97.114;2024-01-30T08:55:01;11.20;98.00
19622;DHT22;9958;33.196;-97.114;2024-01-30T08:57:31;11.20;98.10
19622;DHT22;9958;33.196;-97.114;2024-01-30T09:00:01;11.20;98.10
19622;DHT22;9958;33.196;-97.114;2024-01-30T09:02:32;11.30;98.30
19622;DHT22;9958;33.196;-97.114;2024-01-30T09:05:01;11.30;98.20
19622;DHT22;9958;33.196;-97.114;2024-01-30T09:07:29;11.30;98.10
19622;DHT22;9958;33.196;-97.114;2024-01-30T09:09:57;11.30;98.10
19622;DHT22;9958;33.196;-97.114;2024-01-30T09:12:26;11.20;98.50
19622;DHT22;9958;33.196;-97.114;2024-01-30T09:14:54;11.20;98.50
19622;DHT22;9958;33.196;-97.114;2024-01-30T09:17:24;11.20;98.50
19622;DHT22;9958;33.196;-97.114;2024-01-30T09:19:52;11.20;98.50
19622;DHT22;9958;33.196;-97.114;2024-01-30T09:22:20;11.10;98.50
19622;DHT22;9958;33.196;-97.114;2024-01-30T09:24:49;11.10;98.70
19622;DHT22;9958;33.196;-97.114;2024-01-30T09:27:17;11.00;99.20
19622;DHT22;9958;33.196;-97.114;2024-01-30T09:29:46;10.90;99.30
19622;DHT22;9958;33.196;-97.114;2024-01-30T09:32:14;10.90;99.40
19622;DHT22;9958;33.196;-97.114;2024-01-30T09:34:45;10.80;99.50
19622;DHT22;9958;33.196;-97.114;2024-01-30T09:37:14;10.70;99.70
19622;DHT22;9958;33.196;-97.114;2024-01-30T09:39:44;10.70;99.90
19622;DHT22;9958;33.196;-97.114;2024-01-30T09:42:19;10.60;99.90
19622;DHT22;9958;33.196;-97.114;2024-01-30T09:44:51;10.60;99.90
19622;DHT22;9958;33.196;-97.114;2024-01-30T09:47:19;10.50;99.90
19622;DHT22;9958;33.196;-97.114;2024-01-30T09:49:51;10.50;99.90
19622;DHT22;9958;33.196;-97.114;2024-01-30T09:52:19;10.50;99.90
19622;DHT22;9958;33.196;-97.114;2024-01-30T09:54:48;10.40;99.90
19622;DHT22;9958;33.196;-97.114;2024-01-30T09:57:17;10.40;99.90
19622;DHT22;9958;33.196;-97.114;2024-01-30T09:59:45;10.30;99.90
19622;DHT22;9958;33.196;-97.114;2024-01-30T10:02:14;10.30;99.90
19622;DHT22;9958;33.196;-97.114;2024-01-30T10:04:42;10.30;99.90
19622;DHT22;9958;33.196;-97.114;2024-01-30T10:07:12;10.20;99.90
19622;DHT22;9958;33.196;-97.114;2024-01-30T10:09:41;10.10;99.90
19622;DHT22;9958;33.196;-97.114;2024-01-30T10:12:10;10.10;99.90
19622;DHT22;9958;33.196;-97.114;2024-01-30T10:14:38;10.10;99.90
19622;DHT22;9958;33.196;-97.114;2024-01-30T10:17:08;10.10;99.90
19622;DHT22;9958;33.196;-97.114;2024-01-30T10:19:37;10.00;99.90
19622;DHT22;9958;33.196;-97.114;2024-01-30T10:22:05;10.00;99.90
19622;DHT22;9958;33.196;-97.114;2024-01-30T10:24:35;9.90;99.90
19622;DHT22;9958;33.196;-97.114;2024-01-30T10:27:06;9.90;99.90
19622;DHT22;9958;33.196;-97.114;2024-01-30T10:29:34;9.90;99.90
19622;DHT22;9958;33.196;-97.114;2024-01-30T10:32:04;9.90;99.90
19622;DHT22;9958;33.196;-97.114;2024-01-30T10:34:32;9.90;99.90
19622;DHT22;9958;33.196;-97.114;2024-01-30T10:37:07;9.80;99.90
19622;DHT22;9958;33.196;-97.114;2024-01-30T10:39:41;9.80;99.90
19622;DHT22;9958;33.196;-97.114;2024-01-30T10:42:12;9.80;99.90
19622;DHT22;9958;33.196;-97.114;2024-01-30T10:44:48;9.70;99.90
19622;DHT22;9958;33.196;-97.114;2024-01-30T10:47:27;9.70;99.90
19622;DHT22;9958;33.196;-97.114;2024-01-30T10:49:56;9.60;99.90
19622;DHT22;9958;33.196;-97.114;2024-01-30T10:52:24;9.60;99.90
19622;DHT22;9958;33.196;-97.114;2024-01-30T10:54:56;9.60;99.90
19622;DHT22;9958;33.196;-97.114;2024-01-30T10:57:24;9.50;99.90
19622;DHT22;9958;33.196;-97.114;2024-01-30T10:59:55;9.50;99.90
19622;DHT22;9958;33.196;-97.114;2024-01-30T11:02:25;9.50;99.90
19622;DHT22;9958;33.196;-97.114;2024-01-30T11:04:58;9.50;99.90
19622;DHT22;9958;33.196;-97.114;2024-01-30T11:07:28;9.40;99.90
19622;DHT22;9958;33.196;-97.114;2024-01-30T11:10:02;9.40;99.90
19622;DHT22;9958;33.196;-97.114;2024-01-30T11:12:32;9.40;99.90
19622;DHT22;9958;33.196;-97.114;2024-01-30T11:15:05;9.30;99.90
19622;DHT22;9958;33.196;-97.114;2024-01-30T11:17:50;9.30;99.90
19622;DHT22;9958;33.196;-97.114;2024-01-30T11:20:21;9.20;99.90
19622;DHT22;9958;33.196;-97.114;2024-01-30T11:22:51;9.20;99.90
19622;DHT22;9958;33.196;-97.114;2024-01-30T11:25:22;9.20;99.90
19622;DHT22;9958;33.196;-97.114;2024-01-30T11:27:52;9.20;99.90
19622;DHT22;9958;33.196;-97.114;2024-01-30T11:30:24;9.20;99.90
19622;DHT22;9958;33.196;-97.114;2024-01-30T11:33:00;9.20;99.90
19622;DHT22;9958;33.196;-97.114;2024-01-30T11:35:30;9.10;99.90
19622;DHT22;9958;33.196;-97.114;2024-01-30T11:37:59;9.10;99.90
19622;DHT22;9958;33.196;-97.114;2024-01-30T11:40:30;9.10;99.90
19622;DHT22;9958;33.196;-97.114;2024-01-30T11:43:00;9.10;99.90
19622;DHT22;9958;33.196;-97.114;2024-01-30T11:45:29;9.10;99.90
19622;DHT22;9958;33.196;-97.114;2024-01-30T11:47:57;9.20;99.90
19622;DHT22;9958;33.196;-97.114;2024-01-30T11:50:26;9.20;99.90
19622;DHT22;9958;33.196;-97.114;2024-01-30T11:52:55;9.20;99.90
19622;DHT22;9958;33.196;-97.114;2024-01-30T11:55:25;9.20;99.90
19622;DHT22;9958;33.196;-97.114;2024-01-30T11:57:57;9.10;99.90
19622;DHT22;9958;33.196;-97.114;2024-01-30T12:00:26;9.10;99.90
19622;DHT22;9958;33.196;-97.114;2024-01-30T12:02:55;9.10;99.90
19622;DHT22;9958;33.196;-97.114;2024-01-30T12:05:23;9.10;99.90
19622;DHT22;9958;33.196;-97.114;2024-01-30T12:07:52;9.00;99.90
19622;DHT22;9958;33.196;-97.114;2024-01-30T12:10:22;9.00;99.90
19622;DHT22;9958;33.196;-97.114;2024-01-30T12:12:50;9.00;99.90
19622;DHT22;9958;33.196;-97.114;2024-01-30T12:15:22;8.90;99.90
19622;DHT22;9958;33.196;-97.114;2024-01-30T12:17:50;8.90;99.90
19622;DHT22;9958;33.196;-97.114;2024-01-30T12:20:19;8.90;99.90
19622;DHT22;9958;33.196;-97.114;2024-01-30T12:22:48;8.90;99.90
19622;DHT22;9958;33.196;-97.114;2024-01-30T12:25:18;8.90;99.90
19622;DHT22;9958;33.196;-97.114;2024-01-30T12:27:50;8.90;99.90
19622;DHT22;9958;33.196;-97.114;2024-01-30T12:30:23;8.90;99.90
19622;DHT22;9958;33.196;-97.114;2024-01-30T12:32:51;8.80;99.90
19622;DHT22;9958;33.196;-97.114;2024-01-30T12:35:20;8.80;99.90
19622;DHT22;9958;33.196;-97.114;2024-01-30T12:37:49;8.80;99.90
19622;DHT22;9958;33.196;-97.114;2024-01-30T12:40:18;8.80;99.90
19622;DHT22;9958;33.196;-97.114;2024-01-30T12:42:47;8.80;99.90
19622;DHT22;9958;33.196;-97.114;2024-01-30T12:45:16;8.70;99.90
19622;DHT22;9958;33.196;-97.114;2024-01-30T12:47:49;8.70;99.90
19622;DHT22;9958;33.196;-97.114;2024-01-30T12:50:17;8.70;99.90
19622;DHT22;9958;33.196;-97.114;2024-01-30T12:52:46;8.60;99.90
19622;DHT22;9958;33.196;-97.114;2024-01-30T12:55:14;8.60;99.90
19622;DHT22;9958;33.196;-97.114;2024-01-30T12:57:43;8.60;99.90
19622;DHT22;9958;33.196;-97.114;2024-01-30T13:00:11;8.50;99.90
19622;DHT22;9958;33.196;-97.114;2024-01-30T13:02:40;8.50;99.90
19622;DHT22;9958;33.196;-97.114;2024-01-30T13:05:11;8.50;99.90
19622;DHT22;9958;33.196;-97.114;2024-01-30T13:07:39;8.50;99.90
19622;DHT22;9958;33.196;-97.114;2024-01-30T13:10:08;8.50;99.90
19622;DHT22;9958;33.196;-97.114;2024-01-30T13:12:36;8.60;99.90
19622;DHT22;9958;33.196;-97.114;2024-01-30T13:15:05;8.60;99.90
19622;DHT22;9958;33.196;-97.114;2024-01-30T13:17:34;8.60;99.90
19622;DHT22;9958;33.196;-97.114;2024-01-30T13:20:02;8.60;99.90
19622;DHT22;9958;33.196;-97.114;2024-01-30T13:22:32;8.70;99.90
19622;DHT22;9958;33.196;-97.114;2024-01-30T13:25:00;8.70;99.90
19622;DHT22;9958;33.196;-97.114;2024-01-30T13:27:29;8.70;99.90
19622;DHT22;9958;33.196;-97.114;2024-01-30T13:29:57;8.80;99.90
19622;DHT22;9958;33.196;-97.114;2024-01-30T13:32:26;8.90;99.90
19622;DHT22;9958;33.196;-97.114;2024-01-30T13:34:54;8.90;99.90
19622;DHT22;9958;33.196;-97.114;2024-01-30T13:37:22;8.90;99.90
19622;DHT22;9958;33.196;-97.114;2024-01-30T13:39:53;9.00;99.90
19622;DHT22;9958;33.196;-97.114;2024-01-30T13:42:21;9.00;99.90
19622;DHT22;9958;33.196;-97.114;2024-01-30T13:44:49;9.00;99.90
19622;DHT22;9958;33.196;-97.114;2024-01-30T13:47:18;9.10;99.90
19622;DHT22;9958;33.196;-97.114;2024-01-30T13:49:48;9.10;99.90
19622;DHT22;9958;33.196;-97.114;2024-01-30T13:52:16;9.20;99.90
19622;DHT22;9958;33.196;-97.114;2024-01-30T13:54:44;9.20;99.90
19622;DHT22;9958;33.196;-97.114;2024-01-30T13:57:14;9.30;99.90
19622;DHT22;9958;33.196;-97.114;2024-01-30T13:59:42;9.30;99.90
19622;DHT22;9958;33.196;-97.114;2024-01-30T14:02:11;9.30;99.90
19622;DHT22;9958;33.196;-97.114;2024-01-30T14:04:39;9.40;99.90
19622;DHT22;9958;33.196;-97.114;2024-01-30T14:07:07;9.40;99.90
19622;DHT22;9958;33.196;-97.114;2024-01-30T14:09:36;9.50;99.90
19622;DHT22;9958;33.196;-97.114;2024-01-30T14:12:04;9.50;99.90
19622;DHT22;9958;33.196;-97.114;2024-01-30T14:14:34;9.50;99.90
19622;DHT22;9958;33.196;-97.114;2024-01-30T14:17:03;9.60;99.90
19622;DHT22;9958;33.196;-97.114;2024-01-30T14:19:33;9.70;99.90
19622;DHT22;9958;33.196;-97.114;2024-01-30T14:22:02;9.80;99.90
19622;DHT22;9958;33.196;-97.114;2024-01-30T14:24:30;9.90;99.90
19622;DHT22;9958;33.196;-97.114;2024-01-30T14:26:59;10.00;99.90
19622;DHT22;9958;33.196;-97.114;2024-01-30T14:29:27;10.10;99.90
19622;DHT22;9958;33.196;-97.114;2024-01-30T14:31:57;10.20;99.90
19622;DHT22;9958;33.196;-97.114;2024-01-30T14:34:25;10.40;99.90
19622;DHT22;9958;33.196;-97.114;2024-01-30T14:36:53;10.50;99.90
19622;DHT22;9958;33.196;-97.114;2024-01-30T14:39:22;10.60;99.90
19622;DHT22;9958;33.196;-97.114;2024-01-30T14:41:50;10.70;99.90
19622;DHT22;9958;33.196;-97.114;2024-01-30T14:44:18;10.80;99.90
19622;DHT22;9958;33.196;-97.114;2024-01-30T14:46:47;11.00;99.90
19622;DHT22;9958;33.196;-97.114;2024-01-30T14:49:17;11.10;99.90
19622;DHT22;9958;33.196;-97.114;2024-01-30T14:51:45;11.20;99.90
19622;DHT22;9958;33.196;-97.114;2024-01-30T14:54:13;11.30;99.90
19622;DHT22;9958;33.196;-97.114;2024-01-30T14:56:42;11.40;99.90
19622;DHT22;9958;33.196;-97.114;2024-01-30T14:59:10;11.50;99.90
19622;DHT22;9958;33.196;-97.114;2024-01-30T15:01:38;11.70;99.90
19622;DHT22;9958;33.196;-97.114;2024-01-30T15:04:07;11.80;99.90
19622;DHT22;9958;33.196;-97.114;2024-01-30T15:06:37;11.90;99.90
19622;DHT22;9958;33.196;-97.114;2024-01-30T15:09:09;12.00;99.90
19622;DHT22;9958;33.196;-97.114;2024-01-30T15:11:37;12.10;99.90
19622;DHT22;9958;33.196;-97.114;2024-01-30T15:14:06;12.20;99.90
19622;DHT22;9958;33.196;-97.114;2024-01-30T15:16:34;12.30;99.90
19622;DHT22;9958;33.196;-97.114;2024-01-30T15:19:02;12.40;99.90
19622;DHT22;9958;33.196;-97.114;2024-01-30T15:21:31;12.50;99.90
19622;DHT22;9958;33.196;-97.114;2024-01-30T15:24:02;12.60;99.90
19622;DHT22;9958;33.196;-97.114;2024-01-30T15:26:30;12.70;99.90
19622;DHT22;9958;33.196;-97.114;2024-01-30T15:28:59;12.80;99.90
19622;DHT22;9958;33.196;-97.114;2024-01-30T15:31:27;12.90;99.90